Time;durP1;ratioP1;P1;durP2;ratioP2;P2;SDS_P1;SDS_P2;PMS_P1;PMS_P2;Temp;Humidity;BMP_temperature;BMP_pressure;BME280_temperature;BME280_humidity;BME280_pressure;Samples;Min_cycle;Max_cycle;Signal;HPM_P1;HPM_P2
2022/03/18 00:00:44;;;;;;;43.40;28.83;;;10.30;1.00;;;;;;5069844;28;20634;-59
2022/03/18 00:03:09;;;;;;;40.73;27.63;;;10.20;1.00;;;;;;5067185;28;20233;-60
2022/03/18 00:05:35;;;;;;;41.20;27.27;;;10.20;1.00;;;;;;5067873;28;20183;-59
2022/03/18 00:08:01;;;;;;;37.93;25.97;;;;;;;;;;5070146;28;20266;-58
2022/03/18 00:10:29;;;;;;;37.43;25.70;;;10.40;1.00;;;;;;5069273;28;20441;-59
2022/03/18 00:12:55;;;;;;;35.47;24.17;;;;;;;;;;5069323;28;20434;-59
2022/03/18 00:15:23;;;;;;;35.03;23.13;;;10.30;1.00;;;;;;5072093;28;20437;-59
2022/03/18 00:17:49;;;;;;;34.77;22.93;;;10.30;1.00;;;;;;5067097;28;20450;-60
2022/03/18 00:20:15;;;;;;;34.33;24.40;;;10.30;1.00;;;;;;5064669;28;20576;-60
2022/03/18 00:22:42;;;;;;;34.07;22.83;;;10.30;1.00;;;;;;5071185;28;20550;-60
2022/03/18 00:25:09;;;;;;;29.67;21.07;;;10.30;1.00;;;;;;5069574;28;20510;-59
2022/03/18 00:27:35;;;;;;;33.70;22.33;;;;;;;;;;5070362;28;20567;-58
2022/03/18 00:30:02;;;;;;;28.67;20.80;;;10.30;1.00;;;;;;5070935;28;20437;-60
2022/03/18 00:32:27;;;;;;;30.10;18.43;;;10.40;1.00;;;;;;5065099;28;20449;-58
2022/03/18 00:34:53;;;;;;;27.90;20.07;;;;;;;;;;5069408;28;20434;-59
2022/03/18 00:37:19;;;;;;;28.90;18.60;;;10.30;1.00;;;;;;5068354;28;20263;-59
2022/03/18 00:39:44;;;;;;;28.90;19.83;;;10.30;1.00;;;;;;5067324;28;20843;-58
2022/03/18 00:42:12;;;;;;;28.93;19.23;;;10.30;1.00;;;;;;5065796;28;20207;-61
2022/03/18 00:44:39;;;;;;;29.70;18.70;;;10.00;1.00;;;;;;5059147;28;20346;-59
2022/03/18 00:51:59;;;;;;;27.03;18.67;;;10.00;1.00;;;;;;5067040;28;20502;-60
2022/03/18 00:52:37;;;;;;;26.80;18.00;;;9.90;1.00;;;;;;5069577;28;20449;-59
2022/03/18 00:55:02;;;;;;;23.73;17.87;;;9.90;1.00;;;;;;5069303;28;20498;-59
2022/03/18 00:57:28;;;;;;;26.20;17.93;;;9.90;1.00;;;;;;5069345;28;20568;-59
2022/03/18 00:59:54;;;;;;;28.13;17.90;;;12.60;1.00;;;;;;5069241;28;20192;-59
2022/03/18 01:02:19;;;;;;;23.50;16.40;;;10.00;1.00;;;;;;5070153;28;20206;-59
2022/03/18 01:04:45;;;;;;;25.93;16.40;;;9.90;1.00;;;;;;5069988;28;20215;-60
2022/03/18 01:07:10;;;;;;;26.40;17.43;;;9.90;1.00;;;;;;5070972;28;20274;-59
2022/03/18 01:09:36;;;;;;;27.03;16.07;;;9.90;1.00;;;;;;5070751;28;20207;-59
2022/03/18 01:12:04;;;;;;;23.90;17.13;;;;;;;;;;5067698;28;20221;-59
2022/03/18 01:14:30;;;;;;;25.70;15.57;;;9.90;1.00;;;;;;5065785;28;20191;-59
2022/03/18 01:16:55;;;;;;;27.73;16.13;;;9.80;1.00;;;;;;5065729;28;20538;-59
2022/03/18 01:19:21;;;;;;;24.60;15.40;;;9.80;1.00;;;;;;5068199;28;20180;-59
2022/03/18 01:21:46;;;;;;;22.10;15.23;;;9.90;1.00;;;;;;5062943;28;20189;-59
2022/03/18 01:24:12;;;;;;;22.53;14.17;;;9.80;1.00;;;;;;5068428;28;20265;-59
2022/03/18 01:26:39;;;;;;;21.37;13.43;;;9.80;1.00;;;;;;5068215;28;20241;-59
2022/03/18 01:29:05;;;;;;;19.83;12.40;;;9.90;1.00;;;;;;5070478;28;20478;-59
2022/03/18 01:31:31;;;;;;;24.23;15.53;;;;;;;;;;5070937;28;20438;-59
2022/03/18 01:33:56;;;;;;;22.97;15.07;;;10.00;1.00;;;;;;5069493;28;20498;-59
2022/03/18 01:36:22;;;;;;;24.83;15.23;;;9.90;1.00;;;;;;5063694;28;21029;-59
2022/03/18 01:38:48;;;;;;;25.20;15.50;;;9.80;1.00;;;;;;5070100;28;20180;-59
2022/03/18 01:41:13;;;;;;;29.27;15.20;;;9.80;1.00;;;;;;5070389;28;20441;-59
2022/03/18 01:43:42;;;;;;;26.13;15.73;;;9.80;1.00;;;;;;5065754;28;20183;-59
2022/03/18 01:46:08;;;;;;;20.53;14.50;;;9.60;1.00;;;;;;5064140;28;20698;-60
2022/03/18 01:48:34;;;;;;;24.17;14.97;;;9.60;1.00;;;;;;5067488;28;20495;-59
2022/03/18 01:51:00;;;;;;;20.93;12.77;;;9.70;1.00;;;;;;5068246;28;20459;-59
2022/03/18 01:53:26;;;;;;;19.50;12.60;;;9.70;1.00;;;;;;5068699;28;20452;-58
2022/03/18 01:55:54;;;;;;;20.57;14.13;;;9.70;1.00;;;;;;5068892;28;20865;-59
2022/03/18 01:58:20;;;;;;;24.10;14.70;;;9.60;1.00;;;;;;5069634;28;20187;-59
2022/03/18 02:00:46;;;;;;;23.13;15.00;;;9.60;1.00;;;;;;5067325;28;20450;-59
2022/03/18 02:03:11;;;;;;;22.03;14.90;;;9.60;1.00;;;;;;5063970;28;20227;-60
2022/03/18 02:05:37;;;;;;;22.50;14.43;;;9.60;1.00;;;;;;5067971;28;20238;-60
2022/03/18 02:08:06;;;;;;;24.93;14.27;;;9.60;1.00;;;;;;5067284;28;20626;-59
2022/03/18 02:10:33;;;;;;;19.73;13.23;;;9.60;1.00;;;;;;5070252;28;20184;-59
2022/03/18 02:12:58;;;;;;;23.90;13.40;;;9.60;1.00;;;;;;5058575;28;20441;-58
2022/03/18 02:15:24;;;;;;;23.20;14.83;;;9.70;1.00;;;;;;5054244;28;20452;-59
2022/03/18 02:17:49;;;;;;;23.23;15.13;;;9.70;1.00;;;;;;5063000;28;20183;-58
2022/03/18 02:20:15;;;;;;;21.00;13.90;;;9.80;1.00;;;;;;5070482;28;20612;-59
2022/03/18 02:22:41;;;;;;;21.43;13.83;;;9.70;1.00;;;;;;5069739;28;20263;-59
2022/03/18 02:25:12;;;;;;;20.07;12.43;;;9.70;1.00;;;;;;5073601;28;20258;-58
2022/03/18 02:27:52;;;;;;;23.23;14.83;;;9.70;1.00;;;;;;5069267;28;20211;-59
2022/03/18 02:30:18;;;;;;;22.73;14.33;;;9.60;1.00;;;;;;5049186;28;20440;-59
2022/03/18 02:32:43;;;;;;;24.07;14.40;;;9.70;1.00;;;;;;5069042;28;20811;-58
2022/03/18 02:35:09;;;;;;;25.40;14.37;;;9.60;1.00;;;;;;5066376;28;21848;-58
2022/03/18 02:37:35;;;;;;;22.60;13.57;;;;;;;;;;5067734;28;20269;-59
2022/03/18 02:40:02;;;;;;;21.40;11.93;;;9.60;1.00;;;;;;5069917;28;20251;-58
2022/03/18 02:42:27;;;;;;;22.97;13.87;;;9.60;1.00;;;;;;5068985;28;20437;-58
2022/03/18 02:44:53;;;;;;;19.60;13.70;;;9.60;1.00;;;;;;5069639;28;20540;-59
2022/03/18 02:47:19;;;;;;;20.80;14.40;;;9.60;1.00;;;;;;5068898;28;20253;-58
2022/03/18 02:49:45;;;;;;;21.73;14.43;;;9.60;1.00;;;;;;5064735;28;20446;-59
2022/03/18 02:52:10;;;;;;;19.90;14.90;;;9.60;1.00;;;;;;5068216;28;20544;-59
2022/03/18 02:54:37;;;;;;;20.60;12.53;;;9.70;1.00;;;;;;5067809;28;21251;-58
2022/03/18 02:57:02;;;;;;;17.43;12.30;;;9.50;1.00;;;;;;5068548;28;20203;-58
2022/03/18 02:59:28;;;;;;;26.43;14.17;;;9.50;1.00;;;;;;5067072;28;20449;-59
2022/03/18 03:01:55;;;;;;;20.43;13.47;;;9.60;1.00;;;;;;5067242;28;20710;-59
2022/03/18 03:04:20;;;;;;;23.87;13.53;;;9.50;1.00;;;;;;5064629;28;20223;-58
2022/03/18 03:09:30;;;;;;;20.50;14.17;;;9.50;1.00;;;;;;5068155;28;20736;-59
2022/03/18 03:11:56;;;;;;;20.87;13.27;;;;;;;;;;5066014;28;20472;-59
2022/03/18 03:14:22;;;;;;;23.03;13.40;;;11.80;1.00;;;;;;5067966;28;20245;-58
2022/03/18 03:16:48;;;;;;;26.50;16.47;;;;;;;;;;5069328;28;20528;-58
2022/03/18 03:19:14;;;;;;;22.13;15.03;;;9.50;1.00;;;;;;5067730;28;20187;-59
2022/03/18 03:21:40;;;;;;;24.90;13.87;;;9.50;1.00;;;;;;5068610;28;20445;-58
2022/03/18 03:24:06;;;;;;;21.40;14.20;;;9.50;1.00;;;;;;5069786;28;20186;-60
2022/03/18 03:26:32;;;;;;;23.70;15.30;;;9.50;1.00;;;;;;5072335;28;20445;-59
2022/03/18 03:28:57;;;;;;;21.17;15.77;;;9.50;1.00;;;;;;5070547;28;20446;-59
2022/03/18 03:31:23;;;;;;;24.90;15.73;;;9.60;1.00;;;;;;5071475;28;20469;-59
2022/03/18 03:33:49;;;;;;;23.20;15.77;;;;;;;;;;5068897;28;20191;-60
2022/03/18 03:36:15;;;;;;;25.60;16.00;;;9.50;1.00;;;;;;5066834;28;20203;-59
2022/03/18 03:38:41;;;;;;;25.10;15.50;;;;;;;;;;5071134;28;20866;-60
2022/03/18 03:41:06;;;;;;;23.73;16.63;;;9.60;1.00;;;;;;5072024;28;20175;-59
2022/03/18 03:43:32;;;;;;;25.67;16.50;;;9.60;1.00;;;;;;5068861;28;20944;-58
2022/03/18 03:45:58;;;;;;;27.60;17.30;;;9.60;1.00;;;;;;5069768;28;20179;-58
2022/03/18 03:48:23;;;;;;;29.30;18.87;;;9.60;1.00;;;;;;5072031;28;20195;-60
2022/03/18 03:50:49;;;;;;;30.90;19.03;;;9.70;1.00;;;;;;5068813;28;20568;-59
2022/03/18 03:53:14;;;;;;;31.13;20.83;;;9.70;1.00;;;;;;5070518;28;20196;-58
2022/03/18 03:55:40;;;;;;;34.70;20.37;;;9.70;1.00;;;;;;5067137;28;20683;-58
2022/03/18 03:58:07;;;;;;;33.43;18.57;;;9.60;1.00;;;;;;5071123;28;20182;-59
2022/03/18 04:00:33;;;;;;;34.50;20.07;;;9.60;1.00;;;;;;5066588;28;20198;-59
2022/03/18 04:02:59;;;;;;;35.50;21.60;;;9.60;1.00;;;;;;5068576;28;20465;-58
2022/03/18 04:05:24;;;;;;;34.80;19.83;;;9.40;1.00;;;;;;5066468;28;20811;-59
2022/03/18 04:07:50;;;;;;;31.63;21.03;;;9.50;1.00;;;;;;5069637;28;20214;-59
2022/03/18 04:10:16;;;;;;;29.83;20.30;;;9.50;1.00;;;;;;5068865;28;20267;-60
2022/03/18 04:12:43;;;;;;;31.83;20.43;;;9.60;1.00;;;;;;5072687;28;20183;-58
2022/03/18 04:15:09;;;;;;;32.53;20.97;;;9.60;1.00;;;;;;5071939;28;20473;-59
2022/03/18 04:17:46;;;;;;;34.60;20.60;;;9.60;1.00;;;;;;5070505;28;20472;-59
2022/03/18 04:20:24;;;;;;;31.37;20.10;;;9.60;1.00;;;;;;5067802;28;20960;-59
2022/03/18 04:22:50;;;;;;;35.30;21.67;;;9.60;1.00;;;;;;5064321;28;20443;-59
2022/03/18 04:25:16;;;;;;;35.03;22.90;;;9.70;1.00;;;;;;5061560;28;20477;-58
2022/03/18 04:27:42;;;;;;;31.90;20.70;;;9.60;1.00;;;;;;5068391;28;20450;-59
2022/03/18 04:30:10;;;;;;;38.03;22.73;;;9.60;1.00;;;;;;5067647;28;20814;-60
2022/03/18 04:32:36;;;;;;;34.53;20.83;;;9.40;1.00;;;;;;5070304;28;20250;-59
2022/03/18 04:35:03;;;;;;;36.50;20.33;;;9.40;1.00;;;;;;5069596;28;20433;-59
2022/03/18 04:37:28;;;;;;;33.43;20.93;;;9.40;1.00;;;;;;5069425;28;20465;-59
2022/03/18 04:39:54;;;;;;;33.80;19.40;;;9.50;1.00;;;;;;5065739;28;20960;-60
2022/03/18 04:42:20;;;;;;;31.57;21.07;;;9.70;1.00;;;;;;5068133;28;20179;-59
2022/03/18 04:44:45;;;;;;;33.33;20.40;;;9.60;1.00;;;;;;5051734;28;20276;-60
2022/03/18 04:47:11;;;;;;;34.77;21.10;;;;;;;;;;5067701;28;20286;-58
2022/03/18 04:49:38;;;;;;;32.77;21.40;;;9.60;1.00;;;;;;5067417;28;20222;-59
2022/03/18 04:52:04;;;;;;;35.77;23.30;;;9.60;1.00;;;;;;5069439;28;20807;-59
2022/03/18 04:54:30;;;;;;;33.10;23.23;;;9.60;1.00;;;;;;5070532;28;20456;-60
2022/03/18 04:59:40;;;;;;;38.13;22.77;;;9.50;1.00;;;;;;5070180;28;20237;-57
2022/03/18 05:02:06;;;;;;;41.03;22.37;;;9.40;1.00;;;;;;5069011;28;20433;-65
2022/03/18 05:04:31;;;;;;;37.70;23.60;;;9.40;1.00;;;;;;5069551;28;20453;-65
2022/03/18 05:06:57;;;;;;;31.30;22.27;;;9.50;1.00;;;;;;5069269;28;20454;-67
2022/03/18 05:09:23;;;;;;;37.63;24.27;;;9.30;1.00;;;;;;5068302;28;20191;-65
2022/03/18 05:11:48;;;;;;;34.10;23.97;;;9.30;1.00;;;;;;5067361;28;20219;-66
2022/03/18 05:14:15;;;;;;;35.10;24.07;;;9.50;1.00;;;;;;5069880;28;20926;-65
2022/03/18 05:16:42;;;;;;;33.23;21.83;;;9.50;1.00;;;;;;5067104;28;20203;-66
2022/03/18 05:19:09;;;;;;;36.40;23.57;;;9.40;1.00;;;;;;5053904;28;20482;-65
2022/03/18 05:21:35;;;;;;;38.67;23.90;;;9.40;1.00;;;;;;5069619;28;20449;-60
2022/03/18 05:24:01;;;;;;;37.30;23.77;;;9.40;1.00;;;;;;5069225;28;20529;-61
2022/03/18 05:26:27;;;;;;;36.80;25.23;;;9.40;1.00;;;;;;5069122;28;20537;-61
2022/03/18 05:28:52;;;;;;;39.93;23.20;;;9.40;1.00;;;;;;5069783;28;20220;-60
2022/03/18 05:31:18;;;;;;;35.60;23.37;;;9.40;1.00;;;;;;5070130;28;20859;-60
2022/03/18 05:33:43;;;;;;;37.30;24.97;;;9.40;1.00;;;;;;5071282;28;20511;-60
2022/03/18 05:36:09;;;;;;;40.50;25.57;;;9.40;1.00;;;;;;5068125;28;20261;-61
2022/03/18 05:38:36;;;;;;;38.93;25.77;;;9.40;1.00;;;;;;5069089;28;20179;-61
2022/03/18 05:41:02;;;;;;;37.77;25.80;;;9.40;1.00;;;;;;5068693;28;20266;-61
2022/03/18 05:43:27;;;;;;;37.30;24.33;;;9.40;1.00;;;;;;5067843;28;20576;-64
2022/03/18 05:45:53;;;;;;;40.40;24.20;;;9.40;1.00;;;;;;5068646;28;20198;-62
2022/03/18 05:48:18;;;;;;;40.17;26.30;;;9.60;1.00;;;;;;5068384;28;20187;-63
2022/03/18 05:50:44;;;;;;;37.60;25.40;;;;;;;;;;5067026;28;20190;-61
2022/03/18 05:53:10;;;;;;;41.70;27.03;;;9.60;1.00;;;;;;5068431;28;20202;-62
2022/03/18 05:58:21;;;;;;;37.33;23.50;;;9.70;1.00;;;;;;5070231;28;20557;-61
2022/03/18 06:00:47;;;;;;;41.20;25.63;;;9.60;1.00;;;;;;5069610;28;20445;-60
2022/03/18 06:03:13;;;;;;;42.70;28.80;;;9.60;1.00;;;;;;5069512;28;20477;-59
2022/03/18 06:05:42;;;;;;;48.73;29.93;;;9.50;1.00;;;;;;5067123;28;20453;-61
2022/03/18 06:13:37;;;;;;;37.33;27.30;;;9.70;1.00;;;;;;5063483;28;20425;-60
2022/03/18 06:16:06;;;;;;;39.97;28.93;;;9.70;1.00;;;;;;5067097;28;20458;-60
2022/03/18 06:18:32;;;;;;;42.87;29.20;;;9.90;1.00;;;;;;5068451;28;20211;-60
2022/03/18 06:20:59;;;;;;;41.87;29.43;;;;;;;;;;5068055;28;20491;-61
2022/03/18 06:23:25;;;;;;;44.40;29.63;;;9.90;1.00;;;;;;5069263;28;20211;-62
2022/03/18 06:25:51;;;;;;;46.40;30.80;;;10.00;1.00;;;;;;5067182;28;20469;-60
2022/03/18 06:28:17;;;;;;;47.53;32.83;;;;;;;;;;5068746;28;20442;-61
2022/03/18 06:30:42;;;;;;;48.90;33.40;;;9.80;1.00;;;;;;5068381;28;20187;-62
2022/03/18 06:33:08;;;;;;;47.10;31.77;;;9.80;1.00;;;;;;5069344;28;20446;-61
2022/03/18 06:35:34;;;;;;;47.90;32.37;;;;;;;;;;5068597;28;20541;-61
2022/03/18 06:38:00;;;;;;;60.40;39.07;;;10.00;1.00;;;;;;5068993;28;20507;-60
2022/03/18 06:40:25;;;;;;;50.10;34.37;;;10.00;1.00;;;;;;5067146;28;20560;-60
2022/03/18 06:42:51;;;;;;;47.10;32.47;;;10.00;1.00;;;;;;5067697;28;20211;-60
2022/03/18 06:45:16;;;;;;;48.00;32.70;;;10.00;1.00;;;;;;5066438;28;20262;-59
2022/03/18 06:47:42;;;;;;;45.60;32.37;;;10.30;1.00;;;;;;5066777;28;20179;-60
2022/03/18 06:50:09;;;;;;;42.17;29.70;;;10.30;1.00;;;;;;5065349;28;20696;-60
2022/03/18 06:52:35;;;;;;;43.67;31.53;;;10.30;1.00;;;;;;5066639;28;20257;-60
2022/03/18 06:55:00;;;;;;;50.50;32.97;;;10.30;1.00;;;;;;5068138;28;20873;-60
2022/03/18 06:57:26;;;;;;;53.23;32.57;;;10.20;1.00;;;;;;5071182;28;20199;-59
2022/03/18 06:59:51;;;;;;;49.60;32.67;;;10.30;1.00;;;;;;5071309;28;20256;-60
2022/03/18 07:02:17;;;;;;;45.17;30.20;;;10.20;1.00;;;;;;5071186;28;20190;-60
2022/03/18 07:04:42;;;;;;;44.27;30.23;;;10.20;1.00;;;;;;5071772;28;20653;-61
2022/03/18 07:07:08;;;;;;;40.80;31.03;;;10.10;1.00;;;;;;5071056;28;20199;-64
2022/03/18 07:09:34;;;;;;;46.90;31.87;;;9.90;1.00;;;;;;5071723;28;20200;-61
2022/03/18 07:12:03;;;;;;;40.70;28.50;;;9.90;1.00;;;;;;5070474;28;20501;-61
2022/03/18 07:14:28;;;;;;;45.77;31.30;;;9.70;1.00;;;;;;5051686;28;20183;-59
2022/03/18 07:19:38;;;;;;;42.03;29.43;;;9.70;1.00;;;;;;5072147;28;20485;-60
2022/03/18 07:22:05;;;;;;;39.50;30.60;;;9.70;1.00;;;;;;5070508;28;20441;-61
2022/03/18 07:24:30;;;;;;;37.93;28.70;;;10.00;1.00;;;;;;5071528;28;20206;-63
2022/03/18 07:26:56;;;;;;;41.43;27.03;;;10.20;1.00;;;;;;5071906;28;20504;-61
2022/03/18 07:29:21;;;;;;;40.67;30.27;;;10.40;1.00;;;;;;5070051;28;20183;-61
2022/03/18 07:31:47;;;;;;;36.83;27.00;;;10.40;1.00;;;;;;5071212;28;20257;-62
2022/03/18 07:34:12;;;;;;;42.00;30.27;;;10.70;1.00;;;;;;5071006;28;20191;-61
2022/03/18 07:36:38;;;;;;;38.83;29.00;;;10.90;1.00;;;;;;5072126;28;20295;-60
2022/03/18 07:39:03;;;;;;;40.00;27.53;;;10.80;1.00;;;;;;5071722;28;20597;-60
2022/03/18 07:41:29;;;;;;;40.67;28.20;;;10.70;1.00;;;;;;5071869;28;20229;-61
2022/03/18 07:43:54;;;;;;;38.07;26.27;;;10.70;1.00;;;;;;5070849;28;20191;-61
2022/03/18 07:46:20;;;;;;;40.83;28.63;;;10.60;1.00;;;;;;5070891;28;20226;-61
2022/03/18 07:48:46;;;;;;;40.70;28.03;;;10.50;1.00;;;;;;5071871;28;20203;-60
2022/03/18 07:51:12;;;;;;;37.73;29.00;;;10.50;1.00;;;;;;5071890;28;20182;-62
2022/03/18 07:53:37;;;;;;;36.97;27.57;;;10.50;1.00;;;;;;5069855;28;20453;-61
2022/03/18 07:56:06;;;;;;;37.10;26.67;;;10.70;1.00;;;;;;5052678;28;20297;-61
2022/03/18 07:58:31;;;;;;;38.10;26.50;;;10.60;1.00;;;;;;5071692;28;20213;-61
2022/03/18 08:00:57;;;;;;;34.00;26.73;;;10.50;1.00;;;;;;5053563;28;20549;-60
2022/03/18 08:03:22;;;;;;;36.30;26.23;;;10.50;1.00;;;;;;5070396;28;20222;-61
2022/03/18 08:05:48;;;;;;;38.70;28.07;;;10.30;1.00;;;;;;5071524;28;20184;-60
2022/03/18 08:08:14;;;;;;;38.47;26.50;;;10.30;1.00;;;;;;5070828;28;20179;-60
2022/03/18 08:10:39;;;;;;;34.67;23.93;;;10.30;1.00;;;;;;5069345;28;20184;-59
2022/03/18 08:13:05;;;;;;;40.07;27.73;;;10.30;1.00;;;;;;5070984;28;20183;-61
2022/03/18 08:15:31;;;;;;;35.97;26.00;;;10.70;1.00;;;;;;5071321;28;20187;-61
2022/03/18 08:17:57;;;;;;;36.10;25.03;;;10.90;1.00;;;;;;5071184;28;20359;-60
2022/03/18 08:20:23;;;;;;;37.53;25.00;;;10.90;1.00;;;;;;5071258;28;20544;-60
2022/03/18 08:22:50;;;;;;;37.17;28.60;;;10.90;1.00;;;;;;5071028;28;20465;-61
2022/03/18 08:25:15;;;;;;;36.40;27.30;;;10.90;1.00;;;;;;5070907;28;20214;-61
2022/03/18 08:27:42;;;;;;;38.23;28.23;;;11.10;1.00;;;;;;5070911;28;20434;-61
2022/03/18 08:30:11;;;;;;;37.13;26.33;;;11.10;1.00;;;;;;5071032;28;20212;-60
2022/03/18 08:32:37;;;;;;;37.37;27.90;;;11.10;1.00;;;;;;5070969;28;20515;-61
2022/03/18 08:35:03;;;;;;;36.87;26.93;;;11.20;1.00;;;;;;5070698;28;20473;-60
2022/03/18 08:40:14;;;;;;;37.73;25.53;;;11.30;1.00;;;;;;5071001;28;20523;-61
2022/03/18 08:42:40;;;;;;;34.87;26.33;;;11.40;1.00;;;;;;5070768;28;20444;-61
2022/03/18 08:45:06;;;;;;;38.53;26.70;;;11.10;1.00;;;;;;5070768;28;20559;-60
2022/03/18 08:47:32;;;;;;;38.93;27.70;;;11.10;1.00;;;;;;5070720;28;20437;-61
2022/03/18 08:49:57;;;;;;;35.87;25.57;;;11.20;1.00;;;;;;5052208;28;20456;-61
2022/03/18 08:52:23;;;;;;;36.80;27.20;;;;;;;;;;5068868;28;20198;-60
2022/03/18 08:54:50;;;;;;;38.23;27.40;;;;;;;;;;5070623;28;20183;-61
2022/03/18 08:57:16;;;;;;;36.20;26.67;;;11.40;1.00;;;;;;5070713;28;20477;-62
2022/03/18 08:59:42;;;;;;;35.30;27.70;;;11.30;1.00;;;;;;5070600;28;20446;-61
2022/03/18 09:02:08;;;;;;;37.50;26.60;;;11.40;1.00;;;;;;5070403;28;20493;-62
2022/03/18 09:04:33;;;;;;;38.77;28.10;;;11.70;1.00;;;;;;5070259;28;20303;-61
2022/03/18 09:06:59;;;;;;;35.10;26.13;;;11.50;1.00;;;;;;5070499;28;20241;-61
2022/03/18 09:09:24;;;;;;;43.13;27.27;;;11.40;1.00;;;;;;5070802;28;20293;-61
2022/03/18 09:11:50;;;;;;;34.43;26.90;;;11.50;1.00;;;;;;5070177;28;20183;-60
2022/03/18 09:14:23;;;;;;;35.50;27.07;;;;;;;;;;5067864;28;20221;-59
2022/03/18 09:16:49;;;;;;;35.30;25.33;;;11.10;1.00;;;;;;5069731;28;20385;-61
2022/03/18 09:19:15;;;;;;;34.87;24.47;;;11.30;1.00;;;;;;5069269;28;20529;-59
2022/03/18 09:21:40;;;;;;;38.27;28.80;;;11.50;1.00;;;;;;5068640;28;20445;-61
2022/03/18 09:24:06;;;;;;;33.20;26.70;;;11.90;1.00;;;;;;5070217;28;20436;-60
2022/03/18 09:26:32;;;;;;;38.50;27.13;;;;;;;;;;5051409;28;20184;-61
2022/03/18 09:28:58;;;;;;;32.80;26.87;;;12.20;1.00;;;;;;5070472;28;20445;-60
2022/03/18 09:31:23;;;;;;;31.87;24.70;;;12.20;1.00;;;;;;5070141;28;20474;-60
2022/03/18 09:33:49;;;;;;;37.67;26.80;;;12.50;1.00;;;;;;5070062;28;20218;-60
2022/03/18 09:36:18;;;;;;;35.67;26.53;;;12.50;1.00;;;;;;5052083;28;20215;-61
2022/03/18 09:38:48;;;;;;;32.83;26.60;;;12.90;1.00;;;;;;5068760;28;20179;-61
2022/03/18 09:41:14;;;;;;;36.93;27.57;;;13.00;1.00;;;;;;5070185;28;20549;-61
2022/03/18 09:43:40;;;;;;;36.47;26.67;;;12.90;1.00;;;;;;5070056;28;20476;-60
2022/03/18 09:46:10;;;;;;;32.93;26.30;;;12.90;1.00;;;;;;5069532;28;20520;-61
2022/03/18 09:48:37;;;;;;;33.03;25.97;;;13.00;1.00;;;;;;5069831;28;20469;-61
2022/03/18 09:51:09;;;;;;;33.27;26.23;;;13.00;1.00;;;;;;5070131;28;20441;-62
2022/03/18 09:53:35;;;;;;;43.27;26.53;;;13.30;1.00;;;;;;5069989;28;20504;-61
2022/03/18 09:56:06;;;;;;;35.63;26.80;;;13.50;1.00;;;;;;5069996;28;20438;-61
2022/03/18 09:58:32;;;;;;;31.93;26.80;;;13.50;1.00;;;;;;5069503;28;20449;-60
2022/03/18 10:00:58;;;;;;;33.03;25.77;;;13.60;1.00;;;;;;5069603;28;20927;-60
2022/03/18 10:03:36;;;;;;;35.10;27.07;;;12.90;1.00;;;;;;5068769;28;20533;-60
2022/03/18 10:06:04;;;;;;;34.70;27.03;;;13.10;1.00;;;;;;5067693;28;20464;-61
2022/03/18 10:08:37;;;;;;;35.87;26.57;;;13.10;1.00;;;;;;5070290;28;20434;-61
2022/03/18 10:11:20;;;;;;;38.87;27.00;;;13.20;1.00;;;;;;5069887;28;20520;-62
2022/03/18 10:13:57;;;;;;;35.00;27.53;;;13.00;1.00;;;;;;5069831;28;20532;-61
2022/03/18 10:16:39;;;;;;;34.83;25.67;;;12.90;1.00;;;;;;5051811;28;20998;-60
2022/03/18 10:19:13;;;;;;;34.37;27.10;;;13.00;1.00;;;;;;5069953;28;20433;-61
2022/03/18 10:21:54;;;;;;;36.83;28.07;;;12.90;1.00;;;;;;5051539;28;20438;-60
2022/03/18 10:24:34;;;;;;;34.67;25.67;;;13.10;1.00;;;;;;5069798;28;20462;-61
2022/03/18 10:27:18;;;;;;;37.67;25.97;;;13.30;1.00;;;;;;5051704;28;20437;-61
2022/03/18 10:29:54;;;;;;;37.70;27.90;;;13.40;1.00;;;;;;5069737;28;20429;-61
2022/03/18 10:32:22;;;;;;;36.50;28.30;;;13.50;1.00;;;;;;5073183;28;20498;-63
2022/03/18 10:37:42;;;;;;;43.40;30.10;;;13.80;1.00;;;;;;5072723;28;20463;-60
2022/03/18 10:40:08;;;;;;;38.20;29.10;;;14.10;1.00;;;;;;5073155;28;20452;-61
2022/03/18 10:42:34;;;;;;;32.30;26.07;;;14.10;1.00;;;;;;5073287;28;20434;-61
2022/03/18 10:45:01;;;;;;;32.63;27.27;;;14.20;1.00;;;;;;5073287;28;20430;-61
2022/03/18 10:47:42;;;;;;;35.50;27.40;;;14.20;1.00;;;;;;5073053;28;20188;-60
2022/03/18 10:50:10;;;;;;;32.50;26.27;;;14.20;1.00;;;;;;5073068;28;20510;-60
2022/03/18 10:52:49;;;;;;;31.87;25.77;;;14.40;1.00;;;;;;5073219;28;20433;-61
2022/03/18 10:55:20;;;;;;;34.60;25.53;;;14.80;1.00;;;;;;5073048;28;20433;-60
2022/03/18 10:57:50;;;;;;;37.27;26.10;;;14.40;1.00;;;;;;5073255;28;20463;-62
2022/03/18 11:00:17;;;;;;;36.50;27.30;;;14.20;1.00;;;;;;5073180;28;20444;-61
2022/03/18 11:02:48;;;;;;;38.43;28.83;;;14.30;1.00;;;;;;5072841;28;20458;-61
2022/03/18 11:05:14;;;;;;;35.87;26.63;;;14.20;1.00;;;;;;5072616;28;20429;-61
2022/03/18 11:07:43;;;;;;;37.63;28.47;;;13.90;1.00;;;;;;5070300;28;21553;-62
2022/03/18 11:12:59;;;;;;;43.43;24.90;;;14.10;1.00;;;;;;5073019;28;20491;-60
2022/03/18 11:15:25;;;;;;;32.03;24.60;;;11.60;1.00;;;;;;5072800;28;20449;-62
2022/03/18 11:17:52;;;;;;;33.27;27.27;;;13.90;1.00;;;;;;5069432;28;20472;-61
2022/03/18 11:20:21;;;;;;;30.90;25.27;;;14.10;1.00;;;;;;5072700;28;20416;-61
2022/03/18 11:22:48;;;;;;;34.53;25.50;;;14.20;1.00;;;;;;5072791;28;20449;-63
2022/03/18 11:25:15;;;;;;;34.63;26.10;;;14.30;1.00;;;;;;5071040;28;20476;-62
2022/03/18 11:27:44;;;;;;;32.10;26.70;;;14.50;1.00;;;;;;5071861;28;20446;-61
2022/03/18 11:30:23;;;;;;;30.77;26.33;;;14.80;1.00;;;;;;5072379;28;20441;-61
2022/03/18 11:33:16;;;;;;;33.80;27.57;;;14.80;1.00;;;;;;5072059;28;20441;-60
2022/03/18 11:35:48;;;;;;;32.70;26.43;;;15.10;1.00;;;;;;5072304;28;20437;-61
2022/03/18 11:38:28;;;;;;;36.00;27.60;;;15.30;1.00;;;;;;5072168;28;20445;-61
2022/03/18 11:40:58;;;;;;;33.37;27.60;;;15.50;1.00;;;;;;5071847;28;20839;-61
2022/03/18 11:43:35;;;;;;;34.33;26.80;;;15.80;1.00;;;;;;5070550;28;20474;-60
2022/03/18 11:46:23;;;;;;;36.60;25.50;;;15.80;1.00;;;;;;5069721;28;20449;-61
2022/03/18 11:49:06;;;;;;;28.70;25.60;;;16.00;1.00;;;;;;5071236;28;20472;-62
2022/03/18 11:51:35;;;;;;;34.47;28.27;;;16.00;1.00;;;;;;5071628;28;20732;-61
2022/03/18 11:54:10;;;;;;;31.70;28.20;;;15.70;1.00;;;;;;5053988;28;20863;-61
2022/03/18 11:56:53;;;;;;;35.93;28.10;;;15.60;1.00;;;;;;5071713;28;20556;-61
2022/03/18 11:59:24;;;;;;;30.87;24.40;;;15.60;1.00;;;;;;5072329;28;20429;-60
2022/03/18 12:02:07;;;;;;;31.53;26.83;;;15.20;1.00;;;;;;5068713;28;20504;-62
2022/03/18 12:04:39;;;;;;;29.80;25.43;;;15.40;1.00;;;;;;5069705;28;20584;-62
2022/03/18 12:07:24;;;;;;;32.50;27.57;;;15.50;1.00;;;;;;5071587;28;20468;-60
2022/03/18 12:09:55;;;;;;;34.90;27.27;;;15.30;1.00;;;;;;5071588;28;20946;-60
2022/03/18 12:12:23;;;;;;;28.77;24.30;;;15.40;1.00;;;;;;5071426;28;20473;-60
2022/03/18 12:14:51;;;;;;;34.43;29.23;;;15.60;1.00;;;;;;5071796;28;20513;-62
2022/03/18 12:17:17;;;;;;;32.70;25.80;;;15.50;1.00;;;;;;5071482;28;20514;-61
2022/03/18 12:19:54;;;;;;;32.03;25.30;;;15.50;1.00;;;;;;5071412;28;20926;-61
2022/03/18 12:22:22;;;;;;;30.10;26.10;;;15.80;1.00;;;;;;5071377;28;20434;-62
2022/03/18 12:24:49;;;;;;;31.40;27.37;;;15.90;1.00;;;;;;5071374;28;20433;-61
2022/03/18 12:27:19;;;;;;;31.60;28.30;;;16.10;1.00;;;;;;5070861;28;20825;-61
2022/03/18 12:29:44;;;;;;;30.50;25.33;;;15.70;1.00;;;;;;5071190;28;20479;-61
2022/03/18 12:32:10;;;;;;;32.80;27.57;;;15.70;1.00;;;;;;5070610;28;20441;-61
2022/03/18 12:34:48;;;;;;;31.53;26.27;;;15.00;1.00;;;;;;5070900;28;20183;-61
2022/03/18 12:37:22;;;;;;;32.07;24.97;;;14.50;1.00;;;;;;5070982;28;20576;-60
2022/03/18 12:40:09;;;;;;;33.27;26.27;;;14.40;1.00;;;;;;5071010;28;20444;-62
2022/03/18 12:42:55;;;;;;;30.50;24.90;;;14.50;1.00;;;;;;5070578;28;20544;-60
2022/03/18 12:45:43;;;;;;;29.50;25.27;;;14.70;1.00;;;;;;5071033;28;20532;-60
2022/03/18 12:48:10;;;;;;;32.83;26.47;;;14.60;1.00;;;;;;5071043;28;20430;-61
2022/03/18 12:50:39;;;;;;;29.20;25.70;;;14.90;1.00;;;;;;5069456;28;20831;-61
2022/03/18 12:53:15;;;;;;;31.03;23.93;;;15.20;1.00;;;;;;5067863;28;20436;-61
2022/03/18 12:55:42;;;;;;;32.10;27.00;;;15.00;1.00;;;;;;5070592;28;20433;-61
2022/03/18 12:58:08;;;;;;;30.67;26.70;;;15.00;1.00;;;;;;5052656;28;20469;-61
2022/03/18 13:00:44;;;;;;;31.13;26.37;;;15.10;1.00;;;;;;5070791;28;21157;-61
2022/03/18 13:03:23;;;;;;;31.10;27.40;;;15.40;1.00;;;;;;5069939;28;20210;-62
2022/03/18 13:05:50;;;;;;;33.20;26.27;;;15.30;1.00;;;;;;5070351;28;20483;-61
2022/03/18 13:08:16;;;;;;;35.93;27.50;;;15.30;1.00;;;;;;5070167;28;20919;-62
2022/03/18 13:10:53;;;;;;;36.30;27.87;;;14.90;1.00;;;;;;5053306;28;20452;-61
2022/03/18 13:13:20;;;;;;;32.63;26.70;;;15.00;1.00;;;;;;5070665;28;20450;-62
2022/03/18 13:15:57;;;;;;;32.70;28.10;;;15.10;1.00;;;;;;5070632;28;20440;-62